sensor_id;sensor_type;location;lat;lon;timestamp;P1;durP1;ratioP1;P2;durP2;ratioP2
34828;SDS011;21042;47.620;12.188;2022-11-15T00:01:26;13.30;;;5.53;;
34828;SDS011;21042;47.620;12.188;2022-11-15T00:04:11;14.35;;;5.97;;
34828;SDS011;21042;47.620;12.188;2022-11-15T00:06:57;11.48;;;5.50;;
34828;SDS011;21042;47.620;12.188;2022-11-15T00:09:42;13.68;;;6.97;;
34828;SDS011;21042;47.620;12.188;2022-11-15T00:12:29;15.25;;;7.05;;
34828;SDS011;21042;47.620;12.188;2022-11-15T00:15:15;17.10;;;7.55;;
34828;SDS011;21042;47.620;12.188;2022-11-15T00:18:00;14.57;;;6.88;;
34828;SDS011;21042;47.620;12.188;2022-11-15T00:20:46;14.23;;;7.18;;
34828;SDS011;21042;47.620;12.188;2022-11-15T00:23:32;17.58;;;6.85;;
34828;SDS011;21042;47.620;12.188;2022-11-15T00:26:18;18.85;;;7.32;;
34828;SDS011;21042;47.620;12.188;2022-11-15T00:29:03;12.07;;;6.88;;
34828;SDS011;21042;47.620;12.188;2022-11-15T00:31:48;12.63;;;6.63;;
34828;SDS011;21042;47.620;12.188;2022-11-15T00:34:34;15.00;;;6.43;;
34828;SDS011;21042;47.620;12.188;2022-11-15T00:37:19;12.77;;;6.40;;
34828;SDS011;21042;47.620;12.188;2022-11-15T00:40:05;13.52;;;6.28;;
34828;SDS011;21042;47.620;12.188;2022-11-15T00:42:52;16.83;;;7.30;;
34828;SDS011;21042;47.620;12.188;2022-11-15T00:45:37;12.25;;;6.68;;
34828;SDS011;21042;47.620;12.188;2022-11-15T00:48:22;12.25;;;6.20;;
34828;SDS011;21042;47.620;12.188;2022-11-15T00:51:08;14.95;;;6.53;;
34828;SDS011;21042;47.620;12.188;2022-11-15T00:53:53;13.65;;;5.55;;
34828;SDS011;21042;47.620;12.188;2022-11-15T00:56:39;10.18;;;4.57;;
34828;SDS011;21042;47.620;12.188;2022-11-15T00:59:24;9.70;;;4.50;;
34828;SDS011;21042;47.620;12.188;2022-11-15T01:02:09;9.40;;;4.40;;
34828;SDS011;21042;47.620;12.188;2022-11-15T01:04:55;9.50;;;5.05;;
34828;SDS011;21042;47.620;12.188;2022-11-15T01:07:40;15.75;;;5.80;;
34828;SDS011;21042;47.620;12.188;2022-11-15T01:10:25;8.82;;;4.70;;
34828;SDS011;21042;47.620;12.188;2022-11-15T01:13:11;10.32;;;4.60;;
34828;SDS011;21042;47.620;12.188;2022-11-15T01:15:56;11.55;;;5.07;;
34828;SDS011;21042;47.620;12.188;2022-11-15T01:18:42;9.40;;;4.95;;
34828;SDS011;21042;47.620;12.188;2022-11-15T01:21:29;17.02;;;5.80;;
34828;SDS011;21042;47.620;12.188;2022-11-15T01:24:14;12.73;;;5.38;;
34828;SDS011;21042;47.620;12.188;2022-11-15T01:27:00;14.25;;;6.20;;
34828;SDS011;21042;47.620;12.188;2022-11-15T01:29:46;11.23;;;5.85;;
34828;SDS011;21042;47.620;12.188;2022-11-15T01:32:31;8.23;;;4.68;;
34828;SDS011;21042;47.620;12.188;2022-11-15T01:35:17;10.75;;;4.90;;
34828;SDS011;21042;47.620;12.188;2022-11-15T01:38:02;15.05;;;6.63;;
34828;SDS011;21042;47.620;12.188;2022-11-15T01:40:48;10.32;;;5.13;;
34828;SDS011;21042;47.620;12.188;2022-11-15T01:43:34;10.35;;;4.93;;
34828;SDS011;21042;47.620;12.188;2022-11-15T01:49:11;8.70;;;4.63;;
34828;SDS011;21042;47.620;12.188;2022-11-15T01:51:59;10.57;;;4.65;;
34828;SDS011;21042;47.620;12.188;2022-11-15T01:54:47;8.90;;;4.70;;
34828;SDS011;21042;47.620;12.188;2022-11-15T01:57:35;9.57;;;4.57;;
34828;SDS011;21042;47.620;12.188;2022-11-15T02:00:22;8.95;;;4.85;;
34828;SDS011;21042;47.620;12.188;2022-11-15T02:03:07;8.63;;;4.00;;
34828;SDS011;21042;47.620;12.188;2022-11-15T02:05:52;8.63;;;4.20;;
34828;SDS011;21042;47.620;12.188;2022-11-15T02:08:38;8.07;;;3.90;;
34828;SDS011;21042;47.620;12.188;2022-11-15T02:11:24;11.98;;;4.55;;
34828;SDS011;21042;47.620;12.188;2022-11-15T02:14:10;7.18;;;3.10;;
34828;SDS011;21042;47.620;12.188;2022-11-15T02:17:09;4.03;;;2.13;;
34828;SDS011;21042;47.620;12.188;2022-11-15T02:20:26;4.70;;;2.53;;
34828;SDS011;21042;47.620;12.188;2022-11-15T02:29:41;5.53;;;3.28;;
34828;SDS011;21042;47.620;12.188;2022-11-15T02:32:58;6.93;;;3.60;;
34828;SDS011;21042;47.620;12.188;2022-11-15T02:35:59;5.72;;;3.65;;
34828;SDS011;21042;47.620;12.188;2022-11-15T02:38:53;7.03;;;4.35;;
34828;SDS011;21042;47.620;12.188;2022-11-15T02:42:01;8.07;;;4.28;;
34828;SDS011;21042;47.620;12.188;2022-11-15T02:45:10;10.13;;;4.78;;
34828;SDS011;21042;47.620;12.188;2022-11-15T02:48:01;8.10;;;4.32;;
34828;SDS011;21042;47.620;12.188;2022-11-15T02:50:48;7.95;;;4.40;;
34828;SDS011;21042;47.620;12.188;2022-11-15T02:53:35;7.68;;;3.58;;
34828;SDS011;21042;47.620;12.188;2022-11-15T02:56:20;7.57;;;4.07;;
34828;SDS011;21042;47.620;12.188;2022-11-15T03:05:47;6.85;;;4.35;;
34828;SDS011;21042;47.620;12.188;2022-11-15T03:11:40;6.78;;;4.25;;
34828;SDS011;21042;47.620;12.188;2022-11-15T03:14:30;8.02;;;4.38;;
34828;SDS011;21042;47.620;12.188;2022-11-15T03:17:33;10.18;;;4.50;;
34828;SDS011;21042;47.620;12.188;2022-11-15T03:20:30;9.40;;;3.55;;
34828;SDS011;21042;47.620;12.188;2022-11-15T03:23:17;7.80;;;4.07;;
34828;SDS011;21042;47.620;12.188;2022-11-15T03:26:03;7.18;;;4.35;;
34828;SDS011;21042;47.620;12.188;2022-11-15T03:28:58;8.13;;;4.45;;
34828;SDS011;21042;47.620;12.188;2022-11-15T03:31:49;7.35;;;4.45;;
34828;SDS011;21042;47.620;12.188;2022-11-15T03:40:36;3.88;;;2.47;;
34828;SDS011;21042;47.620;12.188;2022-11-15T03:46:24;8.05;;;4.40;;
34828;SDS011;21042;47.620;12.188;2022-11-15T03:49:24;10.85;;;3.58;;
34828;SDS011;21042;47.620;12.188;2022-11-15T03:52:14;7.70;;;4.20;;
34828;SDS011;21042;47.620;12.188;2022-11-15T03:55:03;6.45;;;3.67;;
34828;SDS011;21042;47.620;12.188;2022-11-15T03:57:51;10.30;;;3.40;;
34828;SDS011;21042;47.620;12.188;2022-11-15T04:00:39;6.78;;;3.67;;
34828;SDS011;21042;47.620;12.188;2022-11-15T04:03:24;7.22;;;3.85;;
34828;SDS011;21042;47.620;12.188;2022-11-15T04:06:10;6.75;;;3.85;;
34828;SDS011;21042;47.620;12.188;2022-11-15T04:08:55;6.28;;;3.40;;
34828;SDS011;21042;47.620;12.188;2022-11-15T04:11:41;8.27;;;4.47;;
34828;SDS011;21042;47.620;12.188;2022-11-15T04:14:26;7.35;;;3.65;;
34828;SDS011;21042;47.620;12.188;2022-11-15T04:17:11;6.45;;;4.15;;
34828;SDS011;21042;47.620;12.188;2022-11-15T04:19:57;11.10;;;4.32;;
34828;SDS011;21042;47.620;12.188;2022-11-15T04:23:02;6.40;;;3.50;;
34828;SDS011;21042;47.620;12.188;2022-11-15T04:26:17;9.32;;;4.50;;
34828;SDS011;21042;47.620;12.188;2022-11-15T04:29:04;5.32;;;3.63;;
34828;SDS011;21042;47.620;12.188;2022-11-15T04:32:09;7.18;;;4.05;;
34828;SDS011;21042;47.620;12.188;2022-11-15T04:34:54;7.60;;;4.20;;
34828;SDS011;21042;47.620;12.188;2022-11-15T04:37:40;7.30;;;3.90;;
34828;SDS011;21042;47.620;12.188;2022-11-15T04:40:32;12.40;;;4.50;;
34828;SDS011;21042;47.620;12.188;2022-11-15T04:43:18;7.38;;;4.07;;
34828;SDS011;21042;47.620;12.188;2022-11-15T04:46:03;9.23;;;5.78;;
34828;SDS011;21042;47.620;12.188;2022-11-15T04:48:49;7.93;;;5.25;;
34828;SDS011;21042;47.620;12.188;2022-11-15T04:51:42;7.80;;;4.93;;
34828;SDS011;21042;47.620;12.188;2022-11-15T04:54:27;10.48;;;4.53;;
34828;SDS011;21042;47.620;12.188;2022-11-15T04:57:13;9.80;;;4.00;;
34828;SDS011;21042;47.620;12.188;2022-11-15T04:59:59;10.27;;;4.43;;
34828;SDS011;21042;47.620;12.188;2022-11-15T05:02:44;7.82;;;4.35;;
34828;SDS011;21042;47.620;12.188;2022-11-15T05:05:48;10.30;;;3.97;;
34828;SDS011;21042;47.620;12.188;2022-11-15T05:08:34;11.25;;;4.97;;
34828;SDS011;21042;47.620;12.188;2022-11-15T05:11:19;13.27;;;5.18;;
34828;SDS011;21042;47.620;12.188;2022-11-15T05:14:05;12.45;;;4.95;;
34828;SDS011;21042;47.620;12.188;2022-11-15T05:16:50;9.00;;;5.07;;
34828;SDS011;21042;47.620;12.188;2022-11-15T05:19:36;12.00;;;5.63;;
34828;SDS011;21042;47.620;12.188;2022-11-15T05:22:21;10.00;;;4.28;;
34828;SDS011;21042;47.620;12.188;2022-11-15T05:25:07;8.77;;;4.50;;
34828;SDS011;21042;47.620;12.188;2022-11-15T05:27:53;7.85;;;4.72;;
34828;SDS011;21042;47.620;12.188;2022-11-15T05:30:38;8.50;;;4.63;;
34828;SDS011;21042;47.620;12.188;2022-11-15T05:33:24;9.45;;;5.20;;
34828;SDS011;21042;47.620;12.188;2022-11-15T05:39:21;8.50;;;4.85;;
34828;SDS011;21042;47.620;12.188;2022-11-15T05:42:11;9.27;;;5.20;;
34828;SDS011;21042;47.620;12.188;2022-11-15T05:45:00;11.85;;;5.38;;
34828;SDS011;21042;47.620;12.188;2022-11-15T05:47:49;11.13;;;5.20;;
34828;SDS011;21042;47.620;12.188;2022-11-15T05:50:36;11.02;;;5.00;;
34828;SDS011;21042;47.620;12.188;2022-11-15T05:53:26;11.13;;;5.60;;
34828;SDS011;21042;47.620;12.188;2022-11-15T05:56:11;10.98;;;5.60;;
34828;SDS011;21042;47.620;12.188;2022-11-15T05:58:58;14.25;;;5.10;;
34828;SDS011;21042;47.620;12.188;2022-11-15T06:01:44;11.48;;;4.53;;
34828;SDS011;21042;47.620;12.188;2022-11-15T06:04:30;11.45;;;5.93;;
34828;SDS011;21042;47.620;12.188;2022-11-15T06:07:15;10.95;;;5.72;;
34828;SDS011;21042;47.620;12.188;2022-11-15T06:10:00;10.18;;;5.50;;
34828;SDS011;21042;47.620;12.188;2022-11-15T06:12:46;6.72;;;4.47;;
34828;SDS011;21042;47.620;12.188;2022-11-15T06:15:32;13.77;;;7.40;;
34828;SDS011;21042;47.620;12.188;2022-11-15T06:18:18;15.02;;;7.93;;
34828;SDS011;21042;47.620;12.188;2022-11-15T06:21:04;10.15;;;4.85;;
34828;SDS011;21042;47.620;12.188;2022-11-15T06:23:50;10.73;;;5.40;;
34828;SDS011;21042;47.620;12.188;2022-11-15T06:26:35;10.07;;;4.72;;
34828;SDS011;21042;47.620;12.188;2022-11-15T06:29:20;9.82;;;4.50;;
34828;SDS011;21042;47.620;12.188;2022-11-15T06:32:06;8.70;;;4.93;;
34828;SDS011;21042;47.620;12.188;2022-11-15T06:34:51;9.02;;;6.18;;
34828;SDS011;21042;47.620;12.188;2022-11-15T06:37:37;9.43;;;5.80;;
34828;SDS011;21042;47.620;12.188;2022-11-15T06:40:22;10.02;;;4.85;;
34828;SDS011;21042;47.620;12.188;2022-11-15T06:43:07;15.10;;;6.35;;
34828;SDS011;21042;47.620;12.188;2022-11-15T06:45:53;8.63;;;4.97;;
34828;SDS011;21042;47.620;12.188;2022-11-15T06:48:39;17.88;;;6.13;;
34828;SDS011;21042;47.620;12.188;2022-11-15T06:51:24;10.13;;;5.38;;
34828;SDS011;21042;47.620;12.188;2022-11-15T06:54:10;9.57;;;4.75;;
34828;SDS011;21042;47.620;12.188;2022-11-15T06:56:55;9.00;;;5.10;;
34828;SDS011;21042;47.620;12.188;2022-11-15T06:59:40;19.05;;;10.38;;
34828;SDS011;21042;47.620;12.188;2022-11-15T07:02:26;24.95;;;11.05;;
34828;SDS011;21042;47.620;12.188;2022-11-15T07:05:12;25.38;;;12.50;;
34828;SDS011;21042;47.620;12.188;2022-11-15T07:07:58;22.92;;;11.13;;
34828;SDS011;21042;47.620;12.188;2022-11-15T07:10:43;11.73;;;6.38;;
34828;SDS011;21042;47.620;12.188;2022-11-15T07:13:29;9.15;;;5.30;;
34828;SDS011;21042;47.620;12.188;2022-11-15T07:16:19;22.33;;;8.10;;
34828;SDS011;21042;47.620;12.188;2022-11-15T07:19:05;19.80;;;10.30;;
34828;SDS011;21042;47.620;12.188;2022-11-15T07:21:50;15.25;;;8.52;;
34828;SDS011;21042;47.620;12.188;2022-11-15T07:24:35;11.95;;;6.95;;
34828;SDS011;21042;47.620;12.188;2022-11-15T07:27:21;13.93;;;7.10;;
34828;SDS011;21042;47.620;12.188;2022-11-15T07:30:07;13.38;;;6.93;;
34828;SDS011;21042;47.620;12.188;2022-11-15T07:32:56;12.65;;;6.35;;
34828;SDS011;21042;47.620;12.188;2022-11-15T07:35:42;15.30;;;6.65;;
34828;SDS011;21042;47.620;12.188;2022-11-15T07:38:31;18.95;;;8.05;;
34828;SDS011;21042;47.620;12.188;2022-11-15T07:41:25;13.07;;;5.80;;
34828;SDS011;21042;47.620;12.188;2022-11-15T07:44:10;11.07;;;5.20;;
34828;SDS011;21042;47.620;12.188;2022-11-15T07:46:56;8.75;;;5.18;;
34828;SDS011;21042;47.620;12.188;2022-11-15T07:49:43;10.20;;;4.97;;
34828;SDS011;21042;47.620;12.188;2022-11-15T07:52:28;9.25;;;4.65;;
34828;SDS011;21042;47.620;12.188;2022-11-15T07:55:14;14.35;;;6.70;;
34828;SDS011;21042;47.620;12.188;2022-11-15T07:58:00;11.32;;;5.65;;
34828;SDS011;21042;47.620;12.188;2022-11-15T08:00:49;10.77;;;5.68;;
34828;SDS011;21042;47.620;12.188;2022-11-15T08:03:35;10.38;;;5.30;;
34828;SDS011;21042;47.620;12.188;2022-11-15T08:06:21;10.32;;;4.80;;
34828;SDS011;21042;47.620;12.188;2022-11-15T08:09:06;7.60;;;4.35;;
34828;SDS011;21042;47.620;12.188;2022-11-15T08:11:51;9.73;;;5.20;;
34828;SDS011;21042;47.620;12.188;2022-11-15T08:14:37;11.05;;;4.68;;
34828;SDS011;21042;47.620;12.188;2022-11-15T08:17:23;11.52;;;4.70;;
34828;SDS011;21042;47.620;12.188;2022-11-15T08:20:09;10.38;;;4.85;;
34828;SDS011;21042;47.620;12.188;2022-11-15T08:22:58;13.70;;;6.20;;
34828;SDS011;21042;47.620;12.188;2022-11-15T08:25:45;12.23;;;5.10;;
34828;SDS011;21042;47.620;12.188;2022-11-15T08:28:31;8.82;;;5.32;;
34828;SDS011;21042;47.620;12.188;2022-11-15T08:31:17;9.57;;;5.40;;
34828;SDS011;21042;47.620;12.188;2022-11-15T08:34:04;10.77;;;5.03;;
34828;SDS011;21042;47.620;12.188;2022-11-15T08:36:50;11.77;;;5.30;;
34828;SDS011;21042;47.620;12.188;2022-11-15T08:39:36;9.88;;;5.10;;
34828;SDS011;21042;47.620;12.188;2022-11-15T08:42:22;9.00;;;4.85;;
34828;SDS011;21042;47.620;12.188;2022-11-15T08:45:08;7.47;;;4.40;;
34828;SDS011;21042;47.620;12.188;2022-11-15T08:47:53;10.20;;;4.18;;
34828;SDS011;21042;47.620;12.188;2022-11-15T08:50:39;5.40;;;3.55;;
34828;SDS011;21042;47.620;12.188;2022-11-15T08:53:24;8.18;;;3.70;;
34828;SDS011;21042;47.620;12.188;2022-11-15T08:56:11;9.63;;;5.03;;
34828;SDS011;21042;47.620;12.188;2022-11-15T08:58:57;6.53;;;3.85;;
34828;SDS011;21042;47.620;12.188;2022-11-15T09:01:43;8.88;;;3.67;;
34828;SDS011;21042;47.620;12.188;2022-11-15T09:04:28;5.20;;;3.38;;
34828;SDS011;21042;47.620;12.188;2022-11-15T09:07:14;10.25;;;3.97;;
34828;SDS011;21042;47.620;12.188;2022-11-15T09:10:00;6.72;;;3.67;;
34828;SDS011;21042;47.620;12.188;2022-11-15T09:12:45;5.88;;;2.97;;
34828;SDS011;21042;47.620;12.188;2022-11-15T09:15:33;7.32;;;2.90;;
34828;SDS011;21042;47.620;12.188;2022-11-15T09:18:18;5.80;;;3.55;;
34828;SDS011;21042;47.620;12.188;2022-11-15T09:21:06;7.10;;;4.00;;
34828;SDS011;21042;47.620;12.188;2022-11-15T09:23:52;7.32;;;3.65;;
34828;SDS011;21042;47.620;12.188;2022-11-15T09:26:37;7.93;;;3.85;;
34828;SDS011;21042;47.620;12.188;2022-11-15T09:29:22;8.88;;;4.07;;
34828;SDS011;21042;47.620;12.188;2022-11-15T09:32:08;7.47;;;3.88;;
34828;SDS011;21042;47.620;12.188;2022-11-15T09:34:53;5.43;;;3.45;;
34828;SDS011;21042;47.620;12.188;2022-11-15T09:37:39;6.72;;;3.33;;
34828;SDS011;21042;47.620;12.188;2022-11-15T09:40:24;13.60;;;4.82;;
34828;SDS011;21042;47.620;12.188;2022-11-15T09:43:26;6.38;;;3.33;;
34828;SDS011;21042;47.620;12.188;2022-11-15T09:49:13;6.97;;;3.30;;
34828;SDS011;21042;47.620;12.188;2022-11-15T09:52:00;8.43;;;3.35;;
34828;SDS011;21042;47.620;12.188;2022-11-15T09:54:33;9.90;;;3.33;;
34828;SDS011;21042;47.620;12.188;2022-11-15T09:57:33;9.80;;;3.90;;
34828;SDS011;21042;47.620;12.188;2022-11-15T10:00:28;6.75;;;3.55;;
34828;SDS011;21042;47.620;12.188;2022-11-15T10:03:14;6.18;;;2.70;;
34828;SDS011;21042;47.620;12.188;2022-11-15T10:05:44;5.25;;;2.97;;
34828;SDS011;21042;47.620;12.188;2022-11-15T10:10:58;5.30;;;2.97;;
34828;SDS011;21042;47.620;12.188;2022-11-15T10:13:47;4.32;;;2.67;;
34828;SDS011;21042;47.620;12.188;2022-11-15T10:24:33;2.97;;;1.80;;
34828;SDS011;21042;47.620;12.188;2022-11-15T10:27:07;5.15;;;2.22;;
34828;SDS011;21042;47.620;12.188;2022-11-15T10:29:43;5.47;;;2.22;;
34828;SDS011;21042;47.620;12.188;2022-11-15T10:32:12;6.53;;;1.98;;
34828;SDS011;21042;47.620;12.188;2022-11-15T10:34:39;2.75;;;1.80;;
34828;SDS011;21042;47.620;12.188;2022-11-15T10:37:06;4.53;;;1.90;;
34828;SDS011;21042;47.620;12.188;2022-11-15T10:39:33;2.55;;;1.80;;
34828;SDS011;21042;47.620;12.188;2022-11-15T10:42:14;3.00;;;2.40;;
34828;SDS011;21042;47.620;12.188;2022-11-15T10:44:52;3.40;;;1.90;;
34828;SDS011;21042;47.620;12.188;2022-11-15T10:50:06;3.65;;;1.88;;
34828;SDS011;21042;47.620;12.188;2022-11-15T10:52:51;4.28;;;1.92;;
34828;SDS011;21042;47.620;12.188;2022-11-15T10:55:20;3.92;;;2.10;;
34828;SDS011;21042;47.620;12.188;2022-11-15T10:57:51;5.25;;;2.20;;
34828;SDS011;21042;47.620;12.188;2022-11-15T11:10:54;2.50;;;1.92;;
34828;SDS011;21042;47.620;12.188;2022-11-15T11:13:33;3.22;;;1.58;;
34828;SDS011;21042;47.620;12.188;2022-11-15T11:21:37;4.88;;;2.03;;
34828;SDS011;21042;47.620;12.188;2022-11-15T11:27:07;2.53;;;1.75;;
34828;SDS011;21042;47.620;12.188;2022-11-15T11:30:03;2.85;;;1.70;;
34828;SDS011;21042;47.620;12.188;2022-11-15T11:32:43;3.40;;;2.17;;
34828;SDS011;21042;47.620;12.188;2022-11-15T11:35:30;7.68;;;2.10;;
34828;SDS011;21042;47.620;12.188;2022-11-15T11:41:00;4.55;;;1.77;;
34828;SDS011;21042;47.620;12.188;2022-11-15T11:43:46;6.25;;;2.15;;
34828;SDS011;21042;47.620;12.188;2022-11-15T11:49:42;2.65;;;2.00;;
34828;SDS011;21042;47.620;12.188;2022-11-15T11:52:26;14.85;;;5.05;;
34828;SDS011;21042;47.620;12.188;2022-11-15T11:54:59;10.48;;;4.18;;
34828;SDS011;21042;47.620;12.188;2022-11-15T12:00:24;7.32;;;3.88;;
34828;SDS011;21042;47.620;12.188;2022-11-15T12:03:05;6.22;;;3.25;;
34828;SDS011;21042;47.620;12.188;2022-11-15T12:05:48;15.63;;;6.68;;
34828;SDS011;21042;47.620;12.188;2022-11-15T12:08:23;8.02;;;4.25;;
34828;SDS011;21042;47.620;12.188;2022-11-15T12:13:47;4.57;;;2.85;;
34828;SDS011;21042;47.620;12.188;2022-11-15T12:16:22;6.38;;;2.70;;
34828;SDS011;21042;47.620;12.188;2022-11-15T12:18:54;5.38;;;2.78;;
34828;SDS011;21042;47.620;12.188;2022-11-15T12:24:00;5.53;;;2.55;;
34828;SDS011;21042;47.620;12.188;2022-11-15T12:26:37;3.25;;;2.50;;
34828;SDS011;21042;47.620;12.188;2022-11-15T12:31:59;7.43;;;2.00;;
34828;SDS011;21042;47.620;12.188;2022-11-15T12:37:01;5.15;;;2.50;;
34828;SDS011;21042;47.620;12.188;2022-11-15T12:45:28;3.78;;;2.28;;
34828;SDS011;21042;47.620;12.188;2022-11-15T13:06:48;6.93;;;2.37;;
34828;SDS011;21042;47.620;12.188;2022-11-15T13:12:11;5.13;;;2.17;;
34828;SDS011;21042;47.620;12.188;2022-11-15T13:14:57;5.20;;;2.33;;
34828;SDS011;21042;47.620;12.188;2022-11-15T13:22:52;4.38;;;2.63;;
34828;SDS011;21042;47.620;12.188;2022-11-15T13:28:18;6.40;;;2.22;;
34828;SDS011;21042;47.620;12.188;2022-11-15T13:33:47;5.22;;;2.25;;
34828;SDS011;21042;47.620;12.188;2022-11-15T13:36:30;2.05;;;1.50;;
34828;SDS011;21042;47.620;12.188;2022-11-15T13:39:04;8.40;;;1.80;;
34828;SDS011;21042;47.620;12.188;2022-11-15T13:41:45;3.67;;;2.03;;
34828;SDS011;21042;47.620;12.188;2022-11-15T13:44:24;3.30;;;1.90;;
34828;SDS011;21042;47.620;12.188;2022-11-15T13:49:53;7.47;;;2.05;;
34828;SDS011;21042;47.620;12.188;2022-11-15T13:52:22;3.58;;;1.60;;
34828;SDS011;21042;47.620;12.188;2022-11-15T13:54:58;2.60;;;1.48;;
34828;SDS011;21042;47.620;12.188;2022-11-15T13:57:44;26.30;;;6.78;;
34828;SDS011;21042;47.620;12.188;2022-11-15T14:05:40;8.05;;;4.15;;
34828;SDS011;21042;47.620;12.188;2022-11-15T14:10:46;6.10;;;3.28;;
34828;SDS011;21042;47.620;12.188;2022-11-15T14:13:29;10.02;;;3.08;;
34828;SDS011;21042;47.620;12.188;2022-11-15T14:21:12;7.53;;;4.45;;
34828;SDS011;21042;47.620;12.188;2022-11-15T14:23:39;16.13;;;8.45;;
34828;SDS011;21042;47.620;12.188;2022-11-15T14:26:10;14.05;;;6.47;;
34828;SDS011;21042;47.620;12.188;2022-11-15T14:29:21;10.77;;;6.07;;
34828;SDS011;21042;47.620;12.188;2022-11-15T14:31:48;13.25;;;6.70;;
34828;SDS011;21042;47.620;12.188;2022-11-15T14:34:15;13.50;;;7.00;;
34828;SDS011;21042;47.620;12.188;2022-11-15T14:36:42;20.45;;;11.02;;
34828;SDS011;21042;47.620;12.188;2022-11-15T14:39:08;20.42;;;9.82;;
34828;SDS011;21042;47.620;12.188;2022-11-15T14:41:36;23.50;;;10.88;;
34828;SDS011;21042;47.620;12.188;2022-11-15T14:44:04;16.40;;;8.20;;
34828;SDS011;21042;47.620;12.188;2022-11-15T14:46:31;27.67;;;11.07;;
34828;SDS011;21042;47.620;12.188;2022-11-15T14:48:58;23.95;;;11.90;;
34828;SDS011;21042;47.620;12.188;2022-11-15T14:51:25;18.17;;;7.75;;
34828;SDS011;21042;47.620;12.188;2022-11-15T14:53:52;18.27;;;7.97;;
34828;SDS011;21042;47.620;12.188;2022-11-15T14:56:20;18.95;;;8.50;;
34828;SDS011;21042;47.620;12.188;2022-11-15T14:58:46;19.40;;;8.18;;
34828;SDS011;21042;47.620;12.188;2022-11-15T15:01:20;16.60;;;7.45;;
34828;SDS011;21042;47.620;12.188;2022-11-15T15:03:49;13.30;;;5.15;;
34828;SDS011;21042;47.620;12.188;2022-11-15T15:06:18;10.25;;;4.35;;
34828;SDS011;21042;47.620;12.188;2022-11-15T15:08:45;14.38;;;6.60;;
34828;SDS011;21042;47.620;12.188;2022-11-15T15:11:16;11.05;;;6.18;;
34828;SDS011;21042;47.620;12.188;2022-11-15T15:13:46;15.88;;;6.43;;
34828;SDS011;21042;47.620;12.188;2022-11-15T15:16:13;20.05;;;7.50;;
34828;SDS011;21042;47.620;12.188;2022-11-15T15:18:40;15.98;;;7.35;;
34828;SDS011;21042;47.620;12.188;2022-11-15T15:21:49;22.90;;;9.40;;
34828;SDS011;21042;47.620;12.188;2022-11-15T15:24:02;21.77;;;11.25;;
34828;SDS011;21042;47.620;12.188;2022-11-15T15:26:29;18.13;;;9.77;;
34828;SDS011;21042;47.620;12.188;2022-11-15T15:28:59;17.20;;;9.32;;
34828;SDS011;21042;47.620;12.188;2022-11-15T15:31:26;17.88;;;8.40;;
34828;SDS011;21042;47.620;12.188;2022-11-15T15:33:53;26.20;;;12.25;;
34828;SDS011;21042;47.620;12.188;2022-11-15T15:36:19;31.88;;;13.80;;
34828;SDS011;21042;47.620;12.188;2022-11-15T15:38:46;39.55;;;17.15;;
34828;SDS011;21042;47.620;12.188;2022-11-15T15:41:13;15.07;;;8.00;;
34828;SDS011;21042;47.620;12.188;2022-11-15T15:43:41;9.70;;;5.97;;
34828;SDS011;21042;47.620;12.188;2022-11-15T15:46:12;10.85;;;6.80;;
34828;SDS011;21042;47.620;12.188;2022-11-15T15:48:41;10.27;;;5.50;;
34828;SDS011;21042;47.620;12.188;2022-11-15T15:51:08;12.10;;;6.72;;
34828;SDS011;21042;47.620;12.188;2022-11-15T15:53:45;14.73;;;5.72;;
34828;SDS011;21042;47.620;12.188;2022-11-15T15:56:12;13.30;;;6.22;;
34828;SDS011;21042;47.620;12.188;2022-11-15T15:58:39;11.68;;;4.97;;
34828;SDS011;21042;47.620;12.188;2022-11-15T16:01:06;8.60;;;5.03;;
34828;SDS011;21042;47.620;12.188;2022-11-15T16:03:33;8.98;;;4.53;;
34828;SDS011;21042;47.620;12.188;2022-11-15T16:05:59;7.53;;;4.38;;
34828;SDS011;21042;47.620;12.188;2022-11-15T16:08:27;10.75;;;4.18;;
34828;SDS011;21042;47.620;12.188;2022-11-15T16:11:13;16.60;;;8.93;;
34828;SDS011;21042;47.620;12.188;2022-11-15T16:13:39;15.23;;;6.00;;
34828;SDS011;21042;47.620;12.188;2022-11-15T16:16:07;25.10;;;10.00;;
34828;SDS011;21042;47.620;12.188;2022-11-15T16:18:38;35.25;;;15.65;;
34828;SDS011;21042;47.620;12.188;2022-11-15T16:21:05;29.40;;;13.30;;
34828;SDS011;21042;47.620;12.188;2022-11-15T16:23:32;13.52;;;7.28;;
34828;SDS011;21042;47.620;12.188;2022-11-15T16:25:58;17.05;;;7.95;;
34828;SDS011;21042;47.620;12.188;2022-11-15T16:28:31;11.25;;;4.97;;
34828;SDS011;21042;47.620;12.188;2022-11-15T16:31:00;11.50;;;4.10;;
34828;SDS011;21042;47.620;12.188;2022-11-15T16:36:05;9.10;;;5.28;;
34828;SDS011;21042;47.620;12.188;2022-11-15T16:38:40;13.18;;;6.72;;
34828;SDS011;21042;47.620;12.188;2022-11-15T16:41:07;12.15;;;7.00;;
34828;SDS011;21042;47.620;12.188;2022-11-15T16:43:33;13.02;;;6.97;;
34828;SDS011;21042;47.620;12.188;2022-11-15T16:46:02;16.83;;;8.30;;
34828;SDS011;21042;47.620;12.188;2022-11-15T16:48:38;9.57;;;5.38;;
34828;SDS011;21042;47.620;12.188;2022-11-15T16:51:05;8.07;;;4.38;;
34828;SDS011;21042;47.620;12.188;2022-11-15T16:53:33;13.98;;;5.90;;
34828;SDS011;21042;47.620;12.188;2022-11-15T16:56:00;11.93;;;5.40;;
34828;SDS011;21042;47.620;12.188;2022-11-15T16:58:26;9.90;;;3.92;;
34828;SDS011;21042;47.620;12.188;2022-11-15T17:00:54;11.30;;;4.55;;
34828;SDS011;21042;47.620;12.188;2022-11-15T17:03:22;9.32;;;4.40;;
34828;SDS011;21042;47.620;12.188;2022-11-15T17:05:50;9.45;;;4.40;;
34828;SDS011;21042;47.620;12.188;2022-11-15T17:08:17;7.38;;;4.28;;
34828;SDS011;21042;47.620;12.188;2022-11-15T17:10:46;10.73;;;5.18;;
34828;SDS011;21042;47.620;12.188;2022-11-15T17:13:13;11.80;;;5.63;;
34828;SDS011;21042;47.620;12.188;2022-11-15T17:15:40;11.05;;;5.45;;
34828;SDS011;21042;47.620;12.188;2022-11-15T17:18:09;12.85;;;6.55;;
34828;SDS011;21042;47.620;12.188;2022-11-15T17:20:38;12.73;;;5.22;;
34828;SDS011;21042;47.620;12.188;2022-11-15T17:23:08;11.98;;;5.82;;
34828;SDS011;21042;47.620;12.188;2022-11-15T17:25:39;9.75;;;5.15;;
34828;SDS011;21042;47.620;12.188;2022-11-15T17:28:06;19.17;;;8.18;;
34828;SDS011;21042;47.620;12.188;2022-11-15T17:30:33;15.30;;;8.05;;
34828;SDS011;21042;47.620;12.188;2022-11-15T17:35:27;18.50;;;8.48;;
34828;SDS011;21042;47.620;12.188;2022-11-15T17:37:54;14.93;;;6.95;;
34828;SDS011;21042;47.620;12.188;2022-11-15T17:40:21;17.42;;;8.75;;
34828;SDS011;21042;47.620;12.188;2022-11-15T17:42:47;23.02;;;10.90;;
34828;SDS011;21042;47.620;12.188;2022-11-15T17:45:14;25.15;;;13.38;;
34828;SDS011;21042;47.620;12.188;2022-11-15T17:47:41;18.80;;;9.52;;
34828;SDS011;21042;47.620;12.188;2022-11-15T17:50:08;11.32;;;7.07;;
34828;SDS011;21042;47.620;12.188;2022-11-15T17:52:35;12.38;;;6.03;;
34828;SDS011;21042;47.620;12.188;2022-11-15T17:55:02;12.80;;;6.65;;
34828;SDS011;21042;47.620;12.188;2022-11-15T17:57:29;14.65;;;7.35;;
34828;SDS011;21042;47.620;12.188;2022-11-15T17:59:56;31.35;;;8.00;;
34828;SDS011;21042;47.620;12.188;2022-11-15T18:02:23;11.63;;;4.88;;
34828;SDS011;21042;47.620;12.188;2022-11-15T18:04:49;11.25;;;4.88;;
34828;SDS011;21042;47.620;12.188;2022-11-15T18:07:16;9.65;;;4.95;;
34828;SDS011;21042;47.620;12.188;2022-11-15T18:09:43;11.45;;;4.90;;
34828;SDS011;21042;47.620;12.188;2022-11-15T18:14:37;25.23;;;13.45;;